createdAt,value
2022-11-14T00:01:28.769Z,91.81
2022-11-14T00:03:55.630Z,92.11
2022-11-14T00:06:22.492Z,92.59
2022-11-14T00:08:49.313Z,91.08
2022-11-14T00:11:16.243Z,90.42
2022-11-14T00:13:47.750Z,89.61
2022-11-14T00:16:16.880Z,92.42
2022-11-14T00:18:43.711Z,92.31
2022-11-14T00:21:10.580Z,94.11
2022-11-14T00:23:39.905Z,94.69
2022-11-14T00:26:09.311Z,95.32
2022-11-14T00:28:36.236Z,94.86
2022-11-14T00:31:06.123Z,94.74
2022-11-14T00:33:33.079Z,93.04
2022-11-14T00:35:59.916Z,93.49
2022-11-14T00:38:26.947Z,93.49
2022-11-14T00:40:54.058Z,93.10
2022-11-14T00:43:22.999Z,93.12
2022-11-14T00:45:50.109Z,93.23
2022-11-14T00:48:21.586Z,94.66
2022-11-14T00:50:50.634Z,95.03
2022-11-14T00:53:17.530Z,93.49
2022-11-14T00:55:44.471Z,93.66
2022-11-14T00:58:11.392Z,92.31
2022-11-14T01:00:39.046Z,92.72
2022-11-14T01:03:10.988Z,92.39
2022-11-14T01:05:47.681Z,92.33
2022-11-14T01:08:16.552Z,92.69
2022-11-14T01:10:47.814Z,93.13
2022-11-14T01:13:16.631Z,91.80
2022-11-14T01:15:46.981Z,92.05
2022-11-14T01:18:18.930Z,92.49
2022-11-14T01:20:48.170Z,93.74
2022-11-14T01:23:16.524Z,93.09
2022-11-14T01:25:44.134Z,91.80
2022-11-14T01:28:17.516Z,92.02
2022-11-14T01:30:44.948Z,93.24
2022-11-14T01:33:11.835Z,94.07
2022-11-14T01:35:39.246Z,94.40
2022-11-14T01:38:06.666Z,93.80
2022-11-14T01:40:34.493Z,93.04
2022-11-14T01:43:16.646Z,92.46
2022-11-14T01:45:55.029Z,93.30
2022-11-14T01:48:34.442Z,93.45
2022-11-14T01:51:11.488Z,94.48
2022-11-14T01:53:38.584Z,95.00
2022-11-14T01:56:10.013Z,94.62
2022-11-14T01:58:41.596Z,93.65
2022-11-14T02:01:08.474Z,93.50
2022-11-14T02:03:39.528Z,92.85
2022-11-14T02:06:12.699Z,92.45
2022-11-14T02:08:42.839Z,92.19
2022-11-14T02:11:17.832Z,93.05
2022-11-14T02:13:44.764Z,92.88
2022-11-14T02:16:14.308Z,91.56
2022-11-14T02:18:41.184Z,91.14
2022-11-14T02:21:10.161Z,91.78
2022-11-14T02:23:41.515Z,92.89
2022-11-14T02:26:08.392Z,93.96
2022-11-14T02:28:37.787Z,93.57
2022-11-14T02:31:07.139Z,92.63
2022-11-14T02:33:33.993Z,93.18
2022-11-14T02:36:00.824Z,95.21
2022-11-14T02:38:28.030Z,93.96
2022-11-14T02:40:55.161Z,93.17
2022-11-14T02:43:22.007Z,93.87
2022-11-14T02:45:48.887Z,94.11
2022-11-14T02:48:15.824Z,93.51
2022-11-14T02:50:43.262Z,94.81
2022-11-14T02:53:10.174Z,93.74
2022-11-14T02:55:41.593Z,94.58
2022-11-14T02:58:08.550Z,93.42
2022-11-14T03:00:38.486Z,93.64
2022-11-14T03:03:11.356Z,94.21
2022-11-14T03:05:40.520Z,92.23
2022-11-14T03:08:14.445Z,91.06
2022-11-14T03:10:46.125Z,91.34
2022-11-14T03:13:17.333Z,91.93
2022-11-14T03:15:44.247Z,93.53
2022-11-14T03:18:13.763Z,94.65
2022-11-14T03:20:40.906Z,94.40
2022-11-14T03:23:10.716Z,95.01
2022-11-14T03:25:39.892Z,94.38
2022-11-14T03:28:11.382Z,93.88
2022-11-14T03:30:38.231Z,92.89
2022-11-14T03:33:05.077Z,92.29
2022-11-14T03:35:31.928Z,92.44
2022-11-14T03:38:00.894Z,92.56
2022-11-14T03:40:27.816Z,92.16
2022-11-14T03:42:54.679Z,90.99
2022-11-14T03:45:21.567Z,90.20
2022-11-14T03:47:48.388Z,92.08
2022-11-14T03:50:15.260Z,93.16
2022-11-14T03:52:42.145Z,94.37
2022-11-14T03:55:09.154Z,94.19
2022-11-14T03:57:38.993Z,94.62
2022-11-14T04:00:09.545Z,92.98
2022-11-14T04:02:39.485Z,92.51
2022-11-14T04:05:07.034Z,92.15
2022-11-14T04:07:33.964Z,91.28
2022-11-14T04:10:02.992Z,91.03
2022-11-14T04:12:31.972Z,90.04
2022-11-14T04:14:58.796Z,91.64
2022-11-14T04:17:27.953Z,91.47
2022-11-14T04:19:57.831Z,91.68
2022-11-14T04:22:26.892Z,92.82
2022-11-14T04:24:53.733Z,93.23
2022-11-14T04:27:27.695Z,93.49
2022-11-14T04:29:56.792Z,92.69
2022-11-14T04:32:26.171Z,91.85
2022-11-14T04:34:56.446Z,91.99
2022-11-14T04:37:25.573Z,91.75
2022-11-14T04:39:58.544Z,91.40
2022-11-14T04:42:28.180Z,91.04
2022-11-14T04:44:55.126Z,92.12
2022-11-14T04:47:22.055Z,92.32
2022-11-14T04:49:51.263Z,95.82
2022-11-14T04:52:22.879Z,95.29
2022-11-14T04:54:49.752Z,93.32
2022-11-14T04:57:17.838Z,92.81
2022-11-14T04:59:44.751Z,92.71
2022-11-14T05:02:13.947Z,91.88
2022-11-14T05:04:44.424Z,92.10
2022-11-14T05:07:11.751Z,91.96
2022-11-14T05:09:38.673Z,93.04
2022-11-14T05:12:08.301Z,91.74
2022-11-14T05:14:38.619Z,90.60
2022-11-14T05:17:07.800Z,91.70
2022-11-14T05:19:34.696Z,92.31
2022-11-14T05:22:06.256Z,92.19
2022-11-14T05:24:35.630Z,92.94
2022-11-14T05:27:02.568Z,92.92
2022-11-14T05:29:31.895Z,93.32
2022-11-14T05:32:01.267Z,95.44
2022-11-14T05:34:28.250Z,94.48
2022-11-14T05:36:57.648Z,93.86
2022-11-14T05:39:24.544Z,93.72
2022-11-14T05:41:51.425Z,93.26
2022-11-14T05:44:22.829Z,93.35
2022-11-14T05:46:49.723Z,93.23
2022-11-14T05:49:20.734Z,94.56
2022-11-14T05:51:51.366Z,95.24
2022-11-14T05:54:18.230Z,93.91
2022-11-14T05:56:47.661Z,94.65
2022-11-14T05:59:14.486Z,94.72
2022-11-14T06:01:41.461Z,94.27
2022-11-14T06:04:17.959Z,95.38
2022-11-14T06:06:49.630Z,93.96
2022-11-14T06:09:16.523Z,92.54
2022-11-14T06:11:43.437Z,92.39
2022-11-14T06:14:11.270Z,93.50
2022-11-14T06:16:41.323Z,93.89
2022-11-14T06:19:08.177Z,94.31
2022-11-14T06:21:35.047Z,94.24
2022-11-14T06:24:02.050Z,93.24
2022-11-14T06:26:31.359Z,94.19
2022-11-14T06:29:01.433Z,92.65
2022-11-14T06:31:30.641Z,91.79
2022-11-14T06:33:57.458Z,92.33
2022-11-14T06:36:26.962Z,92.69
2022-11-14T06:38:56.316Z,93.74
2022-11-14T06:41:28.324Z,94.08
2022-11-14T06:43:55.334Z,95.48
2022-11-14T06:46:23.818Z,97.99
2022-11-14T06:48:52.551Z,98.00
2022-11-14T06:51:22.017Z,95.55
2022-11-14T06:53:48.965Z,94.21
2022-11-14T06:56:21.898Z,95.48
2022-11-14T06:58:52.115Z,94.40
2022-11-14T07:01:27.340Z,95.19
2022-11-14T07:03:54.378Z,94.02
2022-11-14T07:06:24.890Z,95.16
2022-11-14T07:08:56.208Z,96.11
2022-11-14T07:11:33.198Z,96.53
2022-11-14T07:14:03.461Z,95.54
2022-11-14T07:16:36.820Z,95.76
2022-11-14T07:19:11.074Z,96.79
2022-11-14T07:21:38.814Z,97.28
2022-11-14T07:24:06.153Z,96.62
2022-11-14T07:26:35.318Z,96.83
2022-11-14T07:29:03.060Z,96.55
2022-11-14T07:31:32.343Z,94.95
2022-11-14T07:33:59.463Z,94.84
2022-11-14T07:36:26.342Z,95.59
2022-11-14T07:38:55.391Z,96.35
2022-11-14T07:41:25.062Z,95.31
2022-11-14T07:43:51.992Z,96.00
2022-11-14T07:46:21.384Z,96.82
2022-11-14T07:48:48.203Z,96.10
2022-11-14T07:51:20.235Z,96.43
2022-11-14T07:53:49.621Z,95.72
2022-11-14T07:56:20.228Z,96.63
2022-11-14T07:58:50.098Z,97.04
2022-11-14T08:01:16.947Z,97.36
2022-11-14T08:03:46.111Z,95.49
2022-11-14T08:06:19.438Z,94.81
2022-11-14T08:08:46.329Z,94.97
2022-11-14T08:11:36.431Z,94.89
2022-11-14T08:14:05.468Z,95.06
2022-11-14T08:16:32.369Z,94.79
2022-11-14T08:19:04.696Z,94.47
2022-11-14T08:21:31.534Z,95.15
2022-11-14T08:24:00.912Z,94.60
2022-11-14T08:26:31.535Z,93.89
2022-11-14T08:29:01.292Z,94.61
2022-11-14T08:31:28.617Z,93.75
2022-11-14T08:33:55.566Z,94.09
2022-11-14T08:36:25.560Z,93.79
2022-11-14T08:39:00.534Z,94.90
2022-11-14T08:41:31.312Z,94.07
2022-11-14T08:44:02.766Z,94.72
2022-11-14T08:46:29.752Z,94.49
2022-11-14T08:48:56.665Z,93.67
2022-11-14T08:51:23.642Z,92.03
2022-11-14T08:53:53.600Z,90.15
2022-11-14T08:56:20.493Z,90.80
2022-11-14T08:58:47.325Z,92.33
2022-11-14T09:01:17.178Z,91.87
2022-11-14T09:03:44.162Z,91.47
2022-11-14T09:06:11.218Z,90.93
2022-11-14T09:08:38.095Z,90.50
2022-11-14T09:11:09.235Z,89.75
2022-11-14T09:13:36.830Z,90.03
2022-11-14T09:16:08.594Z,89.27
2022-11-14T09:18:37.816Z,89.11
2022-11-14T09:21:12.524Z,88.11
2022-11-14T09:23:39.460Z,87.21
2022-11-14T09:26:08.896Z,88.79
2022-11-14T09:28:36.896Z,89.13
2022-11-14T09:31:07.522Z,90.04
2022-11-14T09:33:35.478Z,88.91
2022-11-14T09:36:08.589Z,87.32
2022-11-14T09:38:40.039Z,87.92
2022-11-14T09:41:40.247Z,87.07
2022-11-14T09:44:39.258Z,87.54
2022-11-14T09:47:21.009Z,86.95
2022-11-14T09:49:51.770Z,88.67
2022-11-14T09:52:48.038Z,89.13
2022-11-14T09:55:21.961Z,88.53
2022-11-14T09:57:48.990Z,88.00
2022-11-14T10:00:23.343Z,87.87
2022-11-14T10:03:25.331Z,86.63
2022-11-14T10:06:32.734Z,85.90
2022-11-14T10:09:30.778Z,85.00
2022-11-14T10:12:15.590Z,84.88
2022-11-14T10:14:58.527Z,83.92
2022-11-14T10:17:56.091Z,83.71
2022-11-14T10:20:51.059Z,83.49
2022-11-14T10:24:15.377Z,83.50
2022-11-14T10:27:42.043Z,82.03
2022-11-14T10:30:19.440Z,81.38
2022-11-14T10:32:55.211Z,81.53
2022-11-14T10:35:48.067Z,78.16
2022-11-14T10:38:48.585Z,74.95
2022-11-14T10:41:34.669Z,72.96
2022-11-14T10:44:19.036Z,73.05
2022-11-14T10:46:51.351Z,73.45
2022-11-14T10:49:26.118Z,71.63
2022-11-14T10:51:59.061Z,63.49
2022-11-14T10:54:44.088Z,62.92
2022-11-14T10:57:22.543Z,61.27
2022-11-14T10:59:52.847Z,61.77
2022-11-14T11:02:19.778Z,59.02
2022-11-14T11:04:46.746Z,58.46
2022-11-14T11:07:40.348Z,55.08
2022-11-14T11:10:40.139Z,51.73
2022-11-14T11:13:12.599Z,49.21
2022-11-14T11:15:45.927Z,45.36
2022-11-14T11:18:29.189Z,39.60
2022-11-14T11:21:08.333Z,39.42
2022-11-14T11:23:47.593Z,41.77
2022-11-14T11:26:28.377Z,42.36
2022-11-14T11:29:23.680Z,40.23
2022-11-14T11:31:58.600Z,38.24
2022-11-14T11:34:32.737Z,39.53
2022-11-14T11:37:16.053Z,36.06
2022-11-14T11:39:53.020Z,32.19
2022-11-14T11:43:37.328Z,31.24
2022-11-14T11:45:53.480Z,33.79
2022-11-14T11:48:26.443Z,33.58
2022-11-14T11:50:53.698Z,39.40
2022-11-14T11:53:39.254Z,41.82
2022-11-14T11:56:13.305Z,39.41
2022-11-14T11:58:48.525Z,39.81
2022-11-14T12:01:19.669Z,42.35
2022-11-14T12:03:54.501Z,44.76
2022-11-14T12:06:28.511Z,44.49
2022-11-14T12:09:15.189Z,42.52
2022-11-14T12:12:04.795Z,43.06
2022-11-14T12:14:55.499Z,44.53
2022-11-14T12:17:34.239Z,42.65
2022-11-14T12:20:32.063Z,44.05
2022-11-14T12:23:25.777Z,41.68
2022-11-14T12:26:20.289Z,39.80
2022-11-14T12:29:46.252Z,40.55
2022-11-14T12:32:30.427Z,42.96
2022-11-14T12:35:03.796Z,42.30
2022-11-14T12:37:40.409Z,41.33
2022-11-14T12:40:42.409Z,43.57
2022-11-14T12:43:36.482Z,45.26
2022-11-14T12:46:09.224Z,43.20
2022-11-14T12:48:41.411Z,45.35
2022-11-14T12:51:28.501Z,43.54
2022-11-14T12:53:59.278Z,44.15
2022-11-14T12:56:32.217Z,41.63
2022-11-14T12:59:22.845Z,40.65
2022-11-14T13:01:52.566Z,40.71
2022-11-14T13:04:42.507Z,41.79
2022-11-14T13:07:33.851Z,42.26
2022-11-14T13:10:34.810Z,43.85
2022-11-14T13:13:33.811Z,42.00
2022-11-14T13:16:34.634Z,43.55
2022-11-14T13:19:38.583Z,44.39
2022-11-14T13:22:11.540Z,49.41
2022-11-14T13:25:02.353Z,47.97
2022-11-14T13:28:05.130Z,51.16
2022-11-14T13:31:18.458Z,52.91
2022-11-14T13:34:04.162Z,52.17
2022-11-14T13:36:44.136Z,53.07
2022-11-14T13:39:34.830Z,54.55
2022-11-14T13:42:41.564Z,52.18
2022-11-14T13:45:41.472Z,49.79
2022-11-14T13:48:29.011Z,52.32
2022-11-14T13:51:28.521Z,53.10
2022-11-14T13:53:54.950Z,51.97
2022-11-14T13:57:07.422Z,49.52
2022-11-14T13:59:46.497Z,51.64
2022-11-14T14:02:21.251Z,51.99
2022-11-14T14:05:21.861Z,51.68
2022-11-14T14:08:28.028Z,52.36
2022-11-14T14:11:16.420Z,51.77
2022-11-14T14:14:17.261Z,51.84
2022-11-14T14:17:02.694Z,53.95
2022-11-14T14:19:41.090Z,52.63
2022-11-14T14:22:32.765Z,53.92
2022-11-14T14:25:29.227Z,54.44
2022-11-14T14:28:20.290Z,55.20
2022-11-14T14:31:02.590Z,55.67
2022-11-14T14:33:44.156Z,55.31
2022-11-14T14:36:28.049Z,54.91
2022-11-14T14:39:18.577Z,56.54
2022-11-14T14:41:48.291Z,55.85
2022-11-14T14:44:33.700Z,56.58
2022-11-14T14:47:24.514Z,56.87
2022-11-14T14:49:53.485Z,56.96
2022-11-14T14:52:35.979Z,60.71
2022-11-14T14:55:06.586Z,62.26
2022-11-14T14:57:33.494Z,63.42
2022-11-14T15:00:01.999Z,66.26
2022-11-14T15:02:30.010Z,69.17
2022-11-14T15:05:00.531Z,69.95
2022-11-14T15:07:29.847Z,70.49
2022-11-14T15:10:03.952Z,71.39
2022-11-14T15:12:32.503Z,72.62
2022-11-14T15:15:00.968Z,71.87
2022-11-14T15:17:34.545Z,71.48
2022-11-14T15:20:03.114Z,70.41
2022-11-14T15:22:32.693Z,71.24
2022-11-14T15:25:15.019Z,71.36
2022-11-14T15:27:54.194Z,71.70
2022-11-14T15:30:30.798Z,71.93
2022-11-14T15:33:05.776Z,74.73
2022-11-14T15:35:35.928Z,75.78
2022-11-14T15:41:19.135Z,76.13
2022-11-14T15:43:53.289Z,75.73
2022-11-14T15:46:29.279Z,75.47
2022-11-14T15:48:56.360Z,75.33
2022-11-14T15:52:00.725Z,74.55
2022-11-14T15:54:33.310Z,76.43
2022-11-14T15:57:14.404Z,76.66
2022-11-14T15:59:43.604Z,77.43
2022-11-14T16:02:21.973Z,77.49
2022-11-14T16:04:52.034Z,78.98
2022-11-14T16:07:19.271Z,78.50
2022-11-14T16:09:49.133Z,78.37
2022-11-14T16:12:16.192Z,77.65
2022-11-14T16:14:45.658Z,77.79
2022-11-14T16:17:17.587Z,77.98
2022-11-14T16:19:45.007Z,76.86
2022-11-14T16:22:20.182Z,77.40
2022-11-14T16:24:49.489Z,77.64
2022-11-14T16:27:16.299Z,77.67
2022-11-14T16:29:46.206Z,78.53
2022-11-14T16:32:13.217Z,78.03
2022-11-14T16:34:42.223Z,78.44
2022-11-14T16:37:13.555Z,79.06
2022-11-14T16:39:43.189Z,79.08
2022-11-14T16:42:11.305Z,79.74
2022-11-14T16:44:42.933Z,80.91
2022-11-14T16:47:22.926Z,80.86
2022-11-14T16:49:58.852Z,80.82
2022-11-14T16:52:28.714Z,80.10
2022-11-14T16:54:56.060Z,79.99
2022-11-14T16:57:29.637Z,79.94
2022-11-14T16:59:58.966Z,80.96
2022-11-14T17:02:26.276Z,81.46
2022-11-14T17:04:53.133Z,82.32
2022-11-14T17:07:23.094Z,82.86
2022-11-14T17:09:50.119Z,84.13
2022-11-14T17:12:17.029Z,83.74
2022-11-14T17:14:43.935Z,83.87
2022-11-14T17:17:10.828Z,83.38
2022-11-14T17:19:45.552Z,83.10
2022-11-14T17:22:13.937Z,82.77
2022-11-14T17:24:43.979Z,85.47
2022-11-14T17:27:12.865Z,85.06
2022-11-14T17:29:42.389Z,84.22
2022-11-14T17:32:09.286Z,83.76
2022-11-14T17:34:36.189Z,84.30
2022-11-14T17:37:03.171Z,83.95
2022-11-14T17:39:35.037Z,84.28
2022-11-14T17:42:02.035Z,84.11
2022-11-14T17:44:32.076Z,84.65
2022-11-14T17:46:58.963Z,85.57
2022-11-14T17:49:28.154Z,85.67
2022-11-14T17:51:55.065Z,84.87
2022-11-14T17:54:22.000Z,85.33
2022-11-14T17:56:54.652Z,85.10
2022-11-14T17:59:22.172Z,85.34
2022-11-14T18:01:54.542Z,86.38
2022-11-14T18:04:24.543Z,87.84
2022-11-14T18:06:51.910Z,88.20
2022-11-14T18:09:18.882Z,86.95
2022-11-14T18:11:48.740Z,87.41
2022-11-14T18:14:22.697Z,88.73
2022-11-14T18:17:11.859Z,89.77
2022-11-14T18:19:38.674Z,90.09
2022-11-14T18:22:05.587Z,90.14
2022-11-14T18:24:32.528Z,89.86
2022-11-14T18:26:59.430Z,89.95
2022-11-14T18:29:28.341Z,90.81
2022-11-14T18:31:55.175Z,90.45
2022-11-14T18:34:22.113Z,89.81
2022-11-14T18:36:49.078Z,90.84
2022-11-14T18:39:20.481Z,91.80
2022-11-14T18:41:47.376Z,92.08
2022-11-14T18:44:21.080Z,91.53
2022-11-14T18:46:47.950Z,91.06
2022-11-14T18:49:14.872Z,90.95
2022-11-14T18:51:42.064Z,91.08
2022-11-14T18:54:18.864Z,90.38
2022-11-14T18:56:48.321Z,90.00
2022-11-14T18:59:18.308Z,91.00
2022-11-14T19:01:47.728Z,90.67
2022-11-14T19:04:17.301Z,90.11
2022-11-14T19:06:44.301Z,90.77
2022-11-14T19:09:16.059Z,91.10
2022-11-14T19:12:02.534Z,90.40
2022-11-14T19:14:29.484Z,89.94
2022-11-14T19:16:59.550Z,89.48
2022-11-14T19:19:29.116Z,90.46
2022-11-14T19:21:58.597Z,90.76
2022-11-14T19:24:25.479Z,90.66
2022-11-14T19:26:52.421Z,90.79
2022-11-14T19:29:23.849Z,90.78
2022-11-14T19:31:50.750Z,91.24
2022-11-14T19:34:20.610Z,91.92
2022-11-14T19:36:59.871Z,91.41
2022-11-14T19:39:33.313Z,92.21
2022-11-14T19:42:04.783Z,91.81
2022-11-14T19:44:32.025Z,92.75
2022-11-14T19:46:58.966Z,92.07
2022-11-14T19:49:25.878Z,92.01
2022-11-14T19:51:55.785Z,91.74
2022-11-14T19:54:22.676Z,91.55
2022-11-14T19:56:49.558Z,91.74
2022-11-14T19:59:21.365Z,92.10
2022-11-14T20:01:55.251Z,92.69
2022-11-14T20:04:23.034Z,93.93
2022-11-14T20:06:50.233Z,93.79
2022-11-14T20:09:19.765Z,94.39
2022-11-14T20:11:46.737Z,93.99
2022-11-14T20:14:13.746Z,93.87
2022-11-14T20:16:40.842Z,92.88
2022-11-14T20:19:08.015Z,93.39
2022-11-14T20:21:39.945Z,93.64
2022-11-14T20:24:10.685Z,92.34
2022-11-14T20:26:37.690Z,91.41
2022-11-14T20:29:06.862Z,90.94
2022-11-14T20:31:33.787Z,91.24
2022-11-14T20:34:00.852Z,91.15
2022-11-14T20:36:39.005Z,91.26
2022-11-14T20:39:20.116Z,91.19
2022-11-14T20:41:47.665Z,91.06
2022-11-14T20:44:14.729Z,92.32
2022-11-14T20:46:41.679Z,91.14
2022-11-14T20:49:11.078Z,90.30
2022-11-14T20:51:38.112Z,90.43
2022-11-14T20:54:05.166Z,90.09
2022-11-14T20:56:32.151Z,90.76
2022-11-14T20:59:02.082Z,91.27
2022-11-14T21:01:29.010Z,90.91
2022-11-14T21:03:55.926Z,91.63
2022-11-14T21:06:27.287Z,91.12
2022-11-14T21:08:57.171Z,89.43
2022-11-14T21:11:24.037Z,89.38
2022-11-14T21:13:59.329Z,90.10
2022-11-14T21:16:31.934Z,90.04
2022-11-14T21:19:03.267Z,89.50
2022-11-14T21:21:33.917Z,88.88
2022-11-14T21:24:04.082Z,88.65
2022-11-14T21:26:34.650Z,89.46
2022-11-14T21:29:09.026Z,89.67
2022-11-14T21:31:42.187Z,88.85
2022-11-14T21:34:15.090Z,88.53
2022-11-14T21:36:46.384Z,87.83
2022-11-14T21:39:16.504Z,88.94
2022-11-14T21:41:48.400Z,89.02
2022-11-14T21:44:17.025Z,90.11
2022-11-14T21:46:47.226Z,90.02
2022-11-14T21:49:14.463Z,89.50
2022-11-14T21:51:41.441Z,89.57
2022-11-14T21:54:11.511Z,90.99
2022-11-14T21:56:40.492Z,90.96
2022-11-14T21:59:21.295Z,91.58
2022-11-14T22:02:11.168Z,91.88
2022-11-14T22:04:41.224Z,91.86
2022-11-14T22:07:08.648Z,91.69
2022-11-14T22:09:38.713Z,91.43
2022-11-14T22:12:08.269Z,90.85
2022-11-14T22:14:35.116Z,90.45
2022-11-14T22:17:01.992Z,90.03
2022-11-14T22:19:28.827Z,91.18
2022-11-14T22:21:55.935Z,90.41
2022-11-14T22:24:25.381Z,89.90
2022-11-14T22:26:52.311Z,90.65
2022-11-14T22:29:19.186Z,91.30
2022-11-14T22:31:46.263Z,90.84
2022-11-14T22:34:13.346Z,90.13
2022-11-14T22:36:40.277Z,90.38
2022-11-14T22:39:07.139Z,89.23
2022-11-14T22:41:34.156Z,89.30
2022-11-14T22:44:01.657Z,89.34
2022-11-14T22:46:32.172Z,90.73
2022-11-14T22:48:59.298Z,90.16
2022-11-14T22:51:28.000Z,91.20
2022-11-14T22:53:58.464Z,91.31
2022-11-14T22:56:28.917Z,93.01
2022-11-14T22:58:58.835Z,91.91
2022-11-14T23:01:31.661Z,91.88
2022-11-14T23:04:04.809Z,91.03
2022-11-14T23:06:34.241Z,91.25
2022-11-14T23:09:02.791Z,91.10
2022-11-14T23:11:31.585Z,91.28
2022-11-14T23:14:00.543Z,93.49
2022-11-14T23:16:31.254Z,93.02
2022-11-14T23:19:02.836Z,93.99
2022-11-14T23:21:37.030Z,93.46
2022-11-14T23:24:08.637Z,92.11
2022-11-14T23:26:35.548Z,92.67
2022-11-14T23:29:05.317Z,92.88
2022-11-14T23:31:34.691Z,92.50
2022-11-14T23:34:01.588Z,92.20
2022-11-14T23:36:29.280Z,91.98
2022-11-14T23:38:56.298Z,93.68
2022-11-14T23:41:27.918Z,94.22
2022-11-14T23:43:54.779Z,93.52
2022-11-14T23:46:21.717Z,93.52
2022-11-14T23:48:51.291Z,93.09
2022-11-14T23:51:20.764Z,93.04
2022-11-14T23:53:50.638Z,91.96
2022-11-14T23:56:17.563Z,92.31
2022-11-14T23:58:49.118Z,93.51
